»·PEaware :: GQUAS KEYW-MYNN

GQUAS :: KEYW-MYNN

FLIGHT INFORMATION

Flight Status: Arrived
Operator: Unknown
More flights by this operator :: More flights under this callsign
Pilot: Joshua V. (18904)
Aircraft: BOEING 737-600
(B736)
More flights by this aircraft type
Origin: KEYW Key West Intl
United States
Destination: MYNN Nassau Intl
Bahamas
More flights between these airports :: More routes between these airports
Route: MTH B676 ZQA
File this flight plan on PilotEdge
Remarks:
Altitude:
(Current/Filed)
20,000ft
Speed:
(Current/Filed)
400kts
Departed: 18-Jul-19 03:50 PM
Arrived: 18-Jul-19 04:32 PM
Distance/Time
Traveled:
236nm/0:42
Distance/Time
To Go:
Arrived

Flight Plot

Page will automatically refresh every two minutes.

Flight plan parsing failed; only flown route is shown


Map Options




Map Legend


Flown Route
Filed Route
Departure Airport
Arrival Airport
Navaid (VOR, NDB)
Fix

Horizontal Profiles

Position Reports

Time Latitude Longitude Heading Altitude Ground
Speed
18-Jul-19 15:27 24.554696 -81.754235 228 10ft 0kts
18-Jul-19 15:28 24.554696 -81.754235 228 10ft 0kts
18-Jul-19 15:29 24.554696 -81.754235 228 10ft 0kts
18-Jul-19 15:30 24.554696 -81.754235 228 10ft 0kts
18-Jul-19 15:31 24.554696 -81.754235 228 10ft 0kts
18-Jul-19 15:32 24.554696 -81.754235 228 10ft 0kts
18-Jul-19 15:33 24.554696 -81.754235 228 10ft 0kts
18-Jul-19 15:34 24.554696 -81.754235 228 10ft 0kts
18-Jul-19 15:35 24.554696 -81.754235 228 10ft 0kts
18-Jul-19 15:36 24.554696 -81.754235 228 10ft 0kts
18-Jul-19 15:37 24.554696 -81.754235 228 10ft 0kts
18-Jul-19 15:38 24.554696 -81.754235 228 10ft 0kts
18-Jul-19 15:39 24.554696 -81.754235 228 10ft 0kts
18-Jul-19 15:40 24.554696 -81.754235 228 10ft 0kts
18-Jul-19 15:41 24.554661 -81.754313 262 10ft 2kts
18-Jul-19 15:42 24.555299 -81.755700 269 10ft 15kts
18-Jul-19 15:43 24.555219 -81.762948 271 10ft 17kts
18-Jul-19 15:44 24.555302 -81.766392 315 10ft 0kts
18-Jul-19 15:45 24.555302 -81.766392 315 10ft 0kts
18-Jul-19 15:46 24.555994 -81.766624 20 10ft 3kts
18-Jul-19 15:47 24.556062 -81.766416 89 10ft 0kts
18-Jul-19 15:48 24.556062 -81.766416 89 10ft 0kts
18-Jul-19 15:49 24.556160 -81.749094 90 243ft 134kts
18-Jul-19 15:50 24.563613 -81.704161 75 2358ft 179kts
18-Jul-19 15:51 24.580410 -81.639445 76 4171ft 239kts
18-Jul-19 15:52 24.599341 -81.563402 76 6840ft 273kts
18-Jul-19 15:53 24.619505 -81.480504 76 10130ft 285kts
18-Jul-19 15:54 24.641748 -81.389181 76 12084ft 345kts
18-Jul-19 15:55 24.667635 -81.281487 75 14529ft 375kts
18-Jul-19 15:56 24.694735 -81.167567 75 17197ft 393kts
18-Jul-19 15:57 24.719202 -81.047941 81 19612ft 409kts
18-Jul-19 15:58 24.733923 -80.921469 82 21734ft 424kts
18-Jul-19 15:59 24.749492 -80.790862 82 23579ft 437kts
18-Jul-19 16:00 24.765943 -80.656093 82 25241ft 449kts
18-Jul-19 16:01 24.782726 -80.518679 81 26729ft 458kts
18-Jul-19 16:02 24.799687 -80.378100 81 28057ft 467kts
18-Jul-19 16:03 24.816603 -80.236600 81 29102ft 466kts
18-Jul-19 16:04 24.833524 -80.095194 81 29108ft 465kts
18-Jul-19 16:05 24.850045 -79.954052 82 29109ft 466kts
18-Jul-19 16:06 24.866491 -79.812463 82 29108ft 466kts
18-Jul-19 16:07 24.882797 -79.671063 82 29109ft 466kts
18-Jul-19 16:08 24.899007 -79.529463 82 29109ft 466kts
18-Jul-19 16:09 24.915190 -79.388159 82 29110ft 465kts
18-Jul-19 16:10 24.931042 -79.246433 82 29111ft 464kts
18-Jul-19 16:11 24.942749 -79.104842 86 29113ft 464kts
18-Jul-19 16:12 24.949852 -78.962936 86 29055ft 462kts
18-Jul-19 16:13 24.957672 -78.822310 86 25557ft 457kts
18-Jul-19 16:14 24.964916 -78.685264 87 22537ft 438kts
18-Jul-19 16:15 24.971807 -78.554499 87 19616ft 418kts
18-Jul-19 16:16 24.978317 -78.429075 87 16695ft 401kts
18-Jul-19 16:17 24.984488 -78.308832 87 13909ft 384kts
18-Jul-19 16:18 24.990414 -78.193807 85 11249ft 368kts
18-Jul-19 16:19 25.012038 -78.094280 75 10556ft 303kts
18-Jul-19 16:20 25.033447 -78.010237 75 9845ft 277kts
18-Jul-19 16:21 25.053939 -77.929338 75 8269ft 269kts
18-Jul-19 16:22 25.073611 -77.850670 75 6740ft 262kts
18-Jul-19 16:23 25.090409 -77.783165 75 5407ft 256kts
18-Jul-19 16:24 25.105949 -77.720631 75 4573ft 233kts
18-Jul-19 16:25 25.134807 -77.661852 46 3772ft 219kts
18-Jul-19 16:26 25.168043 -77.610456 98 2742ft 201kts
18-Jul-19 16:27 25.135782 -77.567795 133 2289ft 181kts
18-Jul-19 16:28 25.101927 -77.531224 132 1499ft 159kts
18-Jul-19 16:29 25.073840 -77.500083 132 733ft 128kts
18-Jul-19 16:30 25.048154 -77.471572 131 36ft 119kts
18-Jul-19 16:31 25.038027 -77.459152 35 23ft 16kts
18-Jul-19 16:32 25.042114 -77.462177 312 23ft 26kts
18-Jul-19 16:33 25.047291 -77.467844 315 23ft 17kts
18-Jul-19 16:34 25.050106 -77.468124 67 23ft 13kts
18-Jul-19 16:35 25.050562 -77.467653 11 23ft 0kts
18-Jul-19 16:36 25.050911 -77.467492 24 23ft 0kts
18-Jul-19 16:37 25.050911 -77.467492 24 23ft 0kts
18-Jul-19 16:38 25.050911 -77.467492 24 23ft 0kts
18-Jul-19 16:39 25.050911 -77.467492 24 23ft 0kts
18-Jul-19 16:40 25.050911 -77.467492 24 23ft 0kts
18-Jul-19 16:41 25.050911 -77.467492 24 23ft 0kts
18-Jul-19 16:42 25.050911 -77.467492 24 23ft 0kts
18-Jul-19 16:43 25.050911 -77.467492 24 23ft 0kts
18-Jul-19 16:44 25.050911 -77.467492 24 23ft 0kts

Navigation Log

Ident Type
Flight plan parsing failed, navigation log unavailable